createdAt,value
2018-10-12T00:01:32.791Z,15.70
2018-10-12T00:04:01.052Z,15.70
2018-10-12T00:06:29.165Z,15.60
2018-10-12T00:08:57.241Z,15.60
2018-10-12T00:11:25.392Z,15.60
2018-10-12T00:13:53.466Z,15.60
2018-10-12T00:16:21.551Z,15.60
2018-10-12T00:18:49.654Z,15.60
2018-10-12T00:21:17.820Z,15.60
2018-10-12T00:23:45.903Z,15.50
2018-10-12T00:26:14.041Z,15.50
2018-10-12T00:28:42.132Z,15.40
2018-10-12T00:31:10.254Z,15.30
2018-10-12T00:33:38.352Z,15.30
2018-10-12T00:36:06.678Z,15.30
2018-10-12T00:38:35.131Z,15.30
2018-10-12T00:41:03.320Z,15.30
2018-10-12T00:43:31.427Z,15.10
2018-10-12T00:45:59.511Z,15.00
2018-10-12T00:48:27.639Z,14.90
2018-10-12T00:50:55.706Z,14.90
2018-10-12T00:53:23.819Z,14.80
2018-10-12T00:55:51.896Z,14.70
2018-10-12T00:58:19.971Z,14.70
2018-10-12T01:00:48.095Z,14.60
2018-10-12T01:03:16.206Z,14.60
2018-10-12T01:05:44.282Z,14.70
2018-10-12T01:08:12.438Z,14.70
2018-10-12T01:10:40.496Z,14.70
2018-10-12T01:13:08.808Z,14.70
2018-10-12T01:15:36.884Z,14.60
2018-10-12T01:18:04.993Z,14.60
2018-10-12T01:20:33.076Z,14.60
2018-10-12T01:23:01.217Z,14.70
2018-10-12T01:25:29.335Z,14.60
2018-10-12T01:27:57.454Z,14.60
2018-10-12T01:30:25.735Z,14.50
2018-10-12T01:32:59.418Z,14.40
2018-10-12T01:35:27.504Z,14.40
2018-10-12T01:37:55.578Z,14.40
2018-10-12T01:40:23.648Z,14.40
2018-10-12T01:42:51.769Z,14.30
2018-10-12T01:45:19.842Z,14.30
2018-10-12T01:47:47.942Z,14.30
2018-10-12T01:50:16.038Z,14.20
2018-10-12T01:52:44.114Z,14.30
2018-10-12T01:55:12.184Z,14.30
2018-10-12T01:57:40.306Z,14.30
2018-10-12T02:00:08.558Z,14.30
2018-10-12T02:02:36.700Z,14.30
2018-10-12T02:05:04.835Z,14.30
2018-10-12T02:07:32.921Z,14.30
2018-10-12T02:10:01.088Z,14.30
2018-10-12T02:12:29.123Z,14.20
2018-10-12T02:14:57.224Z,14.20
2018-10-12T02:17:25.440Z,14.20
2018-10-12T02:19:53.611Z,14.20
2018-10-12T02:22:21.710Z,14.20
2018-10-12T02:24:56.613Z,14.20
2018-10-12T02:27:24.691Z,14.10
2018-10-12T02:29:52.783Z,14.20
2018-10-12T02:32:20.961Z,14.30
2018-10-12T02:34:49.069Z,14.20
2018-10-12T02:37:17.160Z,14.20
2018-10-12T02:39:45.234Z,14.20
2018-10-12T02:42:13.372Z,14.20
2018-10-12T02:44:41.511Z,14.30
2018-10-12T02:47:09.603Z,14.30
2018-10-12T02:49:37.674Z,14.20
2018-10-12T02:52:05.941Z,14.20
2018-10-12T02:54:34.029Z,14.10
2018-10-12T02:57:02.122Z,14.00
2018-10-12T02:59:30.216Z,14.10
2018-10-12T03:01:58.371Z,14.00
2018-10-12T03:04:26.440Z,14.00
2018-10-12T03:06:54.572Z,14.00
2018-10-12T03:09:22.686Z,14.10
2018-10-12T03:11:50.775Z,14.00
2018-10-12T03:14:18.901Z,14.00
2018-10-12T03:16:47.016Z,14.00
2018-10-12T03:19:15.106Z,13.90
2018-10-12T03:21:43.216Z,13.90
2018-10-12T03:24:11.322Z,13.80
2018-10-12T03:26:39.512Z,13.90
2018-10-12T03:29:07.654Z,13.80
2018-10-12T03:31:35.773Z,13.70
2018-10-12T03:34:03.886Z,13.60
2018-10-12T03:36:32.018Z,13.60
2018-10-12T03:39:00.142Z,13.50
2018-10-12T03:41:28.292Z,13.50
2018-10-12T03:43:56.396Z,13.50
2018-10-12T03:46:24.523Z,13.50
2018-10-12T03:48:52.656Z,13.50
2018-10-12T03:51:20.767Z,13.40
2018-10-12T03:53:48.881Z,13.40
2018-10-12T03:56:17.004Z,13.40
2018-10-12T03:58:45.149Z,13.40
2018-10-12T04:01:13.244Z,13.40
2018-10-12T04:03:41.359Z,13.30
2018-10-12T04:06:09.442Z,13.30
2018-10-12T04:08:37.886Z,13.30
2018-10-12T04:11:06.000Z,13.30
2018-10-12T04:13:34.070Z,13.30
2018-10-12T04:16:02.189Z,13.30
2018-10-12T04:18:30.291Z,13.20
2018-10-12T04:20:58.391Z,13.20
2018-10-12T04:23:26.488Z,13.20
2018-10-12T04:25:54.628Z,13.10
2018-10-12T04:28:22.712Z,13.10
2018-10-12T04:30:50.822Z,13.10
2018-10-12T04:33:19.327Z,13.10
2018-10-12T04:35:47.406Z,13.00
2018-10-12T04:38:15.716Z,13.10
2018-10-12T04:41:04.132Z,13.10
2018-10-12T04:43:32.808Z,13.10
2018-10-12T04:46:02.129Z,13.00
2018-10-12T04:48:30.501Z,13.00
2018-10-12T04:50:58.944Z,13.00
2018-10-12T04:53:27.071Z,13.00
2018-10-12T04:55:55.210Z,13.10
2018-10-12T04:58:23.335Z,13.10
2018-10-12T05:00:51.591Z,13.10
2018-10-12T05:03:19.670Z,13.00
2018-10-12T05:05:47.789Z,13.00
2018-10-12T05:08:15.953Z,13.00
2018-10-12T05:10:44.119Z,12.90
2018-10-12T05:13:12.217Z,12.90
2018-10-12T05:15:40.586Z,13.00
2018-10-12T05:18:08.669Z,13.00
2018-10-12T05:20:36.778Z,12.90
2018-10-12T05:23:04.893Z,12.90
2018-10-12T05:25:33.008Z,12.80
2018-10-12T05:28:01.114Z,12.80
2018-10-12T05:30:29.293Z,12.80
2018-10-12T05:32:57.388Z,12.80
2018-10-12T05:35:25.500Z,12.80
2018-10-12T05:37:53.579Z,12.80
2018-10-12T05:40:23.924Z,12.80
2018-10-12T05:42:52.086Z,12.80
2018-10-12T05:45:20.124Z,12.80
2018-10-12T05:47:48.183Z,12.80
2018-10-12T05:50:16.243Z,12.80
2018-10-12T05:52:44.357Z,12.90
2018-10-12T05:55:12.453Z,12.80
2018-10-12T05:57:41.750Z,12.80
2018-10-12T06:00:10.346Z,12.80
2018-10-12T06:05:12.038Z,12.90
2018-10-12T06:07:40.150Z,12.90
2018-10-12T06:10:08.495Z,12.90
2018-10-12T06:12:36.592Z,13.00
2018-10-12T06:15:04.699Z,13.00
2018-10-12T06:17:32.785Z,13.00
2018-10-12T06:20:00.858Z,13.10
2018-10-12T06:22:28.986Z,13.10
2018-10-12T06:24:57.040Z,13.10
2018-10-12T06:27:25.124Z,13.20
2018-10-12T06:29:53.234Z,13.20
2018-10-12T06:32:21.351Z,13.50
2018-10-12T06:34:49.443Z,14.00
2018-10-12T06:37:17.573Z,14.40
2018-10-12T06:39:45.782Z,14.80
2018-10-12T06:42:13.852Z,14.90
2018-10-12T06:44:41.923Z,14.80
2018-10-12T06:47:10.092Z,14.70
2018-10-12T06:49:38.206Z,14.50
2018-10-12T06:52:06.312Z,14.40
2018-10-12T06:54:34.410Z,14.20
2018-10-12T06:57:03.737Z,14.10
2018-10-12T06:59:31.869Z,14.10
2018-10-12T07:02:00.041Z,14.10
2018-10-12T07:04:28.189Z,14.10
2018-10-12T07:06:56.271Z,14.20
2018-10-12T07:09:24.343Z,14.10
2018-10-12T07:11:52.452Z,14.20
2018-10-12T07:14:20.540Z,14.20
2018-10-12T07:16:48.815Z,14.20
2018-10-12T07:19:16.776Z,14.20
2018-10-12T07:21:44.910Z,14.30
2018-10-12T07:24:12.997Z,14.30
2018-10-12T07:26:41.089Z,14.30
2018-10-12T07:29:09.189Z,14.40
2018-10-12T07:31:37.452Z,14.50
2018-10-12T07:34:05.453Z,14.60
2018-10-12T07:36:33.563Z,14.70
2018-10-12T07:39:01.630Z,14.90
2018-10-12T07:41:29.698Z,14.90
2018-10-12T07:43:57.880Z,15.00
2018-10-12T07:46:25.992Z,15.00
2018-10-12T07:48:54.143Z,15.10
2018-10-12T07:51:22.250Z,15.20
2018-10-12T07:53:50.330Z,15.30
2018-10-12T07:56:18.434Z,15.40
2018-10-12T07:58:46.517Z,15.50
2018-10-12T08:01:14.608Z,15.50
2018-10-12T08:03:42.732Z,15.50
2018-10-12T08:06:10.815Z,15.60
2018-10-12T08:08:38.932Z,15.70
2018-10-12T08:11:07.374Z,15.80
2018-10-12T08:13:35.502Z,15.90
2018-10-12T08:16:03.590Z,16.00
2018-10-12T08:18:31.778Z,16.10
2018-10-12T08:20:59.900Z,16.10
2018-10-12T08:23:27.994Z,16.20
2018-10-12T08:25:56.057Z,16.40
2018-10-12T08:28:24.137Z,16.50
2018-10-12T08:30:52.223Z,16.60
2018-10-12T08:33:20.329Z,16.60
2018-10-12T08:35:48.407Z,16.70
2018-10-12T08:38:16.490Z,16.80
2018-10-12T08:40:44.594Z,16.90
2018-10-12T08:43:12.702Z,17.00
2018-10-12T08:45:40.807Z,17.10
2018-10-12T08:48:08.901Z,17.10
2018-10-12T08:50:37.009Z,17.30
2018-10-12T08:53:05.100Z,17.40
2018-10-12T08:55:33.256Z,17.50
2018-10-12T08:58:01.311Z,17.70
2018-10-12T09:00:29.414Z,17.80
2018-10-12T09:02:57.485Z,17.90
2018-10-12T09:05:25.587Z,18.00
2018-10-12T09:07:53.752Z,18.10
2018-10-12T09:10:21.848Z,18.20
2018-10-12T09:12:49.941Z,18.30
2018-10-12T09:15:18.045Z,18.40
2018-10-12T09:17:46.136Z,18.50
2018-10-12T09:20:14.271Z,18.60
2018-10-12T09:22:42.349Z,18.60
2018-10-12T09:25:10.412Z,18.60
2018-10-12T09:27:38.602Z,18.70
2018-10-12T09:30:06.796Z,18.80
2018-10-12T09:32:34.869Z,18.90
2018-10-12T09:35:03.142Z,18.90
2018-10-12T09:37:31.251Z,18.90
2018-10-12T09:39:59.367Z,19.00
2018-10-12T09:42:27.488Z,19.00
2018-10-12T09:44:55.596Z,19.10
2018-10-12T09:47:23.817Z,19.20
2018-10-12T09:49:51.927Z,19.30
2018-10-12T09:52:20.071Z,19.40
2018-10-12T09:54:48.146Z,19.50
2018-10-12T09:57:21.845Z,19.60
2018-10-12T09:59:50.100Z,19.70
2018-10-12T10:02:22.351Z,19.70
2018-10-12T10:04:50.325Z,19.70
2018-10-12T10:07:18.464Z,19.70
2018-10-12T10:09:46.550Z,19.80
2018-10-12T10:12:14.644Z,19.90
2018-10-12T10:14:43.005Z,19.90
2018-10-12T10:17:11.135Z,19.90
2018-10-12T10:19:39.269Z,20.00
2018-10-12T10:22:07.381Z,20.20
2018-10-12T10:24:35.500Z,20.30
2018-10-12T10:27:03.581Z,20.40
2018-10-12T10:29:31.704Z,20.50
2018-10-12T10:31:59.851Z,20.60
2018-10-12T10:34:28.015Z,20.60
2018-10-12T10:36:56.104Z,20.70
2018-10-12T10:39:24.233Z,20.80
2018-10-12T10:41:52.299Z,20.80
2018-10-12T10:44:20.410Z,20.90
2018-10-12T10:46:48.477Z,20.90
2018-10-12T10:49:16.593Z,21.00
2018-10-12T10:51:44.757Z,21.10
2018-10-12T10:54:13.101Z,21.10
2018-10-12T10:56:41.214Z,21.20
2018-10-12T10:59:09.316Z,21.30
2018-10-12T11:01:37.426Z,21.30
2018-10-12T11:04:05.533Z,21.30
2018-10-12T11:06:33.640Z,21.30
2018-10-12T11:09:01.748Z,21.30
2018-10-12T11:11:29.872Z,21.40
2018-10-12T11:13:58.025Z,21.50
2018-10-12T11:16:26.086Z,21.60
2018-10-12T11:18:54.164Z,21.70
2018-10-12T11:21:22.254Z,21.70
2018-10-12T11:23:50.462Z,21.80
2018-10-12T11:26:18.616Z,21.80
2018-10-12T11:28:46.765Z,21.90
2018-10-12T11:31:14.964Z,22.00
2018-10-12T11:33:43.208Z,22.00
2018-10-12T11:36:11.449Z,22.20
2018-10-12T11:38:39.592Z,22.20
2018-10-12T11:41:07.912Z,22.20
2018-10-12T11:43:37.396Z,22.20
2018-10-12T11:46:05.663Z,22.20
2018-10-12T11:48:33.974Z,22.30
2018-10-12T11:51:02.346Z,22.40
2018-10-12T11:53:30.659Z,22.40
2018-10-12T11:55:58.757Z,22.50
2018-10-12T11:58:26.880Z,22.50
2018-10-12T12:00:55.282Z,22.60
2018-10-12T12:03:23.362Z,22.60
2018-10-12T12:05:51.449Z,22.60
2018-10-12T12:08:19.544Z,22.70
2018-10-12T12:10:47.649Z,22.70
2018-10-12T12:13:15.841Z,22.70
2018-10-12T12:15:43.940Z,22.70
2018-10-12T12:18:12.028Z,22.80
2018-10-12T12:20:40.943Z,22.90
2018-10-12T12:23:09.092Z,22.90
2018-10-12T12:25:37.285Z,23.00
2018-10-12T12:28:05.434Z,23.10
2018-10-12T12:30:33.508Z,23.10
2018-10-12T12:33:01.589Z,23.20
2018-10-12T12:35:29.997Z,23.20
2018-10-12T12:37:57.805Z,23.20
2018-10-12T12:40:25.904Z,23.20
2018-10-12T12:42:54.004Z,23.30
2018-10-12T12:45:22.204Z,23.30
2018-10-12T12:47:50.479Z,23.30
2018-10-12T12:50:22.557Z,23.30
2018-10-12T12:52:50.616Z,23.30
2018-10-12T12:55:18.728Z,23.30
2018-10-12T12:57:46.822Z,23.40
2018-10-12T13:00:14.974Z,23.40
2018-10-12T13:02:43.042Z,23.50
2018-10-12T13:05:11.147Z,23.50
2018-10-12T13:07:39.286Z,23.60
2018-10-12T13:10:07.468Z,23.60
2018-10-12T13:12:35.750Z,23.60
2018-10-12T13:15:03.879Z,23.60
2018-10-12T13:17:31.965Z,23.60
2018-10-12T13:20:00.060Z,23.70
2018-10-12T13:22:28.173Z,23.70
2018-10-12T13:24:56.231Z,23.70
2018-10-12T13:27:24.380Z,23.70
2018-10-12T13:29:53.536Z,23.80
2018-10-12T13:32:21.650Z,23.80
2018-10-12T13:34:49.783Z,24.00
2018-10-12T13:37:17.841Z,24.20
2018-10-12T13:39:45.955Z,24.40
2018-10-12T13:42:14.058Z,24.50
2018-10-12T13:44:42.172Z,24.50
2018-10-12T13:47:10.273Z,24.40
2018-10-12T13:49:38.377Z,24.30
2018-10-12T13:52:06.540Z,24.20
2018-10-12T13:54:34.675Z,24.10
2018-10-12T13:57:02.980Z,24.10
2018-10-12T13:59:31.845Z,24.00
2018-10-12T14:02:00.323Z,23.90
2018-10-12T14:04:29.120Z,23.80
2018-10-12T14:06:57.294Z,23.80
2018-10-12T14:09:25.983Z,23.70
2018-10-12T14:11:54.057Z,23.70
2018-10-12T14:14:22.139Z,23.80
2018-10-12T14:16:50.268Z,23.80
2018-10-12T14:19:18.566Z,23.80
2018-10-12T14:21:46.668Z,23.80
2018-10-12T14:24:14.812Z,23.80
2018-10-12T14:26:42.974Z,23.80
2018-10-12T14:29:11.076Z,23.80
2018-10-12T14:31:39.231Z,23.80
2018-10-12T14:34:07.280Z,23.80
2018-10-12T14:36:35.376Z,23.70
2018-10-12T14:39:04.215Z,23.70
2018-10-12T14:41:32.312Z,23.60
2018-10-12T14:44:00.486Z,23.50
2018-10-12T14:46:28.620Z,23.50
2018-10-12T14:48:56.713Z,23.50
2018-10-12T14:51:24.889Z,23.50
2018-10-12T14:53:52.958Z,23.60
2018-10-12T14:56:21.052Z,23.60
2018-10-12T14:58:49.267Z,23.60
2018-10-12T15:01:17.281Z,23.70
2018-10-12T15:03:45.400Z,23.70
2018-10-12T15:06:13.632Z,23.60
2018-10-12T15:08:41.763Z,23.50
2018-10-12T15:11:09.821Z,23.30
2018-10-12T15:13:37.900Z,23.30
2018-10-12T15:16:06.001Z,23.20
2018-10-12T15:18:34.117Z,23.10
2018-10-12T15:21:02.262Z,23.10
2018-10-12T15:23:30.335Z,23.00
2018-10-12T15:25:58.404Z,22.90
2018-10-12T15:28:26.464Z,22.80
2018-10-12T15:30:54.555Z,22.70
2018-10-12T15:33:22.704Z,22.50
2018-10-12T15:35:50.788Z,22.50
2018-10-12T15:38:18.867Z,22.40
2018-10-12T15:40:46.937Z,22.40
2018-10-12T15:43:15.087Z,22.30
2018-10-12T15:45:43.118Z,22.20
2018-10-12T15:48:11.207Z,22.10
2018-10-12T15:50:39.322Z,22.00
2018-10-12T15:53:07.479Z,21.90
2018-10-12T15:55:35.564Z,21.90
2018-10-12T15:58:03.681Z,21.90
2018-10-12T16:00:31.737Z,21.90
2018-10-12T16:02:59.809Z,21.80
2018-10-12T16:05:27.882Z,21.70
2018-10-12T16:07:55.955Z,21.60
2018-10-12T16:10:24.226Z,21.60
2018-10-12T16:12:52.306Z,21.60
2018-10-12T16:15:20.416Z,21.40
2018-10-12T16:17:48.585Z,21.40
2018-10-12T16:20:16.736Z,21.20
2018-10-12T16:22:44.838Z,21.20
2018-10-12T16:25:24.405Z,21.10
2018-10-12T16:27:52.549Z,21.00
2018-10-12T16:30:20.702Z,20.90
2018-10-12T16:32:49.034Z,20.80
2018-10-12T16:35:17.231Z,20.80
2018-10-12T16:37:45.402Z,20.70
2018-10-12T16:40:13.547Z,20.70
2018-10-12T16:42:41.687Z,20.60
2018-10-12T16:45:09.780Z,20.50
2018-10-12T16:47:37.885Z,20.40
2018-10-12T16:50:06.432Z,20.30
2018-10-12T16:52:34.628Z,20.20
2018-10-12T16:55:02.710Z,20.10
2018-10-12T16:57:31.839Z,20.10
2018-10-12T17:00:00.021Z,20.00
2018-10-12T17:02:28.110Z,19.90
2018-10-12T17:04:56.192Z,19.80
2018-10-12T17:07:24.328Z,19.80
2018-10-12T17:09:52.436Z,19.80
2018-10-12T17:12:20.587Z,19.70
2018-10-12T17:14:48.697Z,19.60
2018-10-12T17:17:16.845Z,19.60
2018-10-12T17:19:44.934Z,19.60
2018-10-12T17:22:13.045Z,19.60
2018-10-12T17:24:41.215Z,19.50
2018-10-12T17:27:09.329Z,19.40
2018-10-12T17:29:37.455Z,19.30
2018-10-12T17:32:05.592Z,19.20
2018-10-12T17:34:33.808Z,19.10
2018-10-12T17:37:01.897Z,19.00
2018-10-12T17:39:30.008Z,18.80
2018-10-12T17:42:08.124Z,18.70
2018-10-12T17:44:36.220Z,18.70
2018-10-12T17:47:04.310Z,18.70
2018-10-12T17:49:32.405Z,18.60
2018-10-12T17:52:00.513Z,18.50
2018-10-12T17:54:28.637Z,18.50
2018-10-12T17:56:56.733Z,18.40
2018-10-12T17:59:24.846Z,18.40
2018-10-12T18:01:52.948Z,18.50
2018-10-12T18:04:21.478Z,18.50
2018-10-12T18:06:49.597Z,18.40
2018-10-12T18:09:17.727Z,18.30
2018-10-12T18:11:45.818Z,18.30
2018-10-12T18:14:14.005Z,18.20
2018-10-12T18:16:42.066Z,18.10
2018-10-12T18:19:10.221Z,18.00
2018-10-12T18:21:38.326Z,17.90
2018-10-12T18:24:06.498Z,17.90
2018-10-12T18:26:34.590Z,17.80
2018-10-12T18:29:02.863Z,17.70
2018-10-12T18:31:30.961Z,17.70
2018-10-12T18:33:59.033Z,17.70
2018-10-12T18:36:27.164Z,17.60
2018-10-12T18:38:55.224Z,17.50
2018-10-12T18:41:23.316Z,17.40
2018-10-12T18:43:51.427Z,17.40
2018-10-12T18:46:19.544Z,17.40
2018-10-12T18:48:47.673Z,17.40
2018-10-12T18:51:15.776Z,17.40
2018-10-12T18:53:43.902Z,17.30
2018-10-12T18:56:12.009Z,17.30
2018-10-12T18:58:40.129Z,17.20
2018-10-12T19:01:08.440Z,17.10
2018-10-12T19:03:36.572Z,17.00
2018-10-12T19:06:04.651Z,16.90
2018-10-12T19:08:32.885Z,16.90
2018-10-12T19:11:01.024Z,16.90
2018-10-12T19:13:29.132Z,16.90
2018-10-12T19:15:57.514Z,16.80
2018-10-12T19:18:25.662Z,16.90
2018-10-12T19:20:53.765Z,16.90
2018-10-12T19:23:22.161Z,16.80
2018-10-12T19:25:50.335Z,16.80
2018-10-12T19:28:18.461Z,16.80
2018-10-12T19:30:46.636Z,16.80
2018-10-12T19:33:14.853Z,16.80
2018-10-12T19:35:43.107Z,16.70
2018-10-12T19:38:11.582Z,16.70
2018-10-12T19:40:39.747Z,16.70
2018-10-12T19:43:07.983Z,16.70
2018-10-12T19:45:36.296Z,16.70
2018-10-12T19:48:04.525Z,16.70
2018-10-12T19:50:32.719Z,16.60
2018-10-12T19:53:01.237Z,16.60
2018-10-12T19:55:29.345Z,16.60
2018-10-12T19:58:00.408Z,16.60
2018-10-12T20:00:28.541Z,16.50
2018-10-12T20:02:56.707Z,16.60
2018-10-12T20:05:24.880Z,16.60
2018-10-12T20:07:53.002Z,16.60
2018-10-12T20:10:21.195Z,16.60
2018-10-12T20:12:49.300Z,16.50
2018-10-12T20:15:17.443Z,16.50
2018-10-12T20:17:45.566Z,16.40
2018-10-12T20:20:13.711Z,16.40
2018-10-12T20:22:41.886Z,16.40
2018-10-12T20:25:10.197Z,16.50
2018-10-12T20:27:38.313Z,16.50
2018-10-12T20:30:06.609Z,16.50
2018-10-12T20:32:34.685Z,16.60
2018-10-12T20:35:02.799Z,16.60
2018-10-12T20:37:31.021Z,16.60
2018-10-12T20:39:59.088Z,16.70
2018-10-12T20:42:27.164Z,16.60
2018-10-12T20:44:55.260Z,16.50
2018-10-12T20:47:23.468Z,16.50
2018-10-12T20:49:51.681Z,16.40
2018-10-12T20:52:19.769Z,16.40
2018-10-12T20:54:47.862Z,16.40
2018-10-12T20:57:15.971Z,16.40
2018-10-12T20:59:44.061Z,16.30
2018-10-12T21:02:12.176Z,16.30
2018-10-12T21:04:40.435Z,16.30
2018-10-12T21:07:08.568Z,16.30
2018-10-12T21:09:36.657Z,16.30
2018-10-12T21:12:04.804Z,16.30
2018-10-12T21:14:32.899Z,16.30
2018-10-12T21:17:01.014Z,16.20
2018-10-12T21:19:29.123Z,16.20
2018-10-12T21:21:57.239Z,16.20
2018-10-12T21:24:25.548Z,16.20
2018-10-12T21:26:53.640Z,16.20
2018-10-12T21:29:21.821Z,16.10
2018-10-12T21:31:50.049Z,16.20
2018-10-12T21:34:18.345Z,16.10
2018-10-12T21:36:46.473Z,16.10
2018-10-12T21:39:14.778Z,16.20
2018-10-12T21:41:42.857Z,16.20
2018-10-12T21:44:10.961Z,16.20
2018-10-12T21:46:39.394Z,16.20
2018-10-12T21:49:07.447Z,16.10
2018-10-12T21:51:35.521Z,16.00
2018-10-12T21:54:03.686Z,16.00
2018-10-12T21:56:31.850Z,15.90
2018-10-12T21:58:59.969Z,15.90
2018-10-12T22:01:28.146Z,15.90
2018-10-12T22:03:56.217Z,16.00
2018-10-12T22:06:24.324Z,16.10
2018-10-12T22:08:53.842Z,16.00
2018-10-12T22:11:21.946Z,16.00
2018-10-12T22:13:50.138Z,15.90
2018-10-12T22:16:18.246Z,15.90
2018-10-12T22:18:46.323Z,15.80
2018-10-12T22:21:14.407Z,15.80
2018-10-12T22:23:42.541Z,15.70
2018-10-12T22:26:10.675Z,15.60
2018-10-12T22:28:38.755Z,15.60
2018-10-12T22:31:07.439Z,15.50
2018-10-12T22:33:35.603Z,15.50
2018-10-12T22:36:03.788Z,15.40
2018-10-12T22:38:31.883Z,15.40
2018-10-12T22:40:59.956Z,15.40
2018-10-12T22:43:28.042Z,15.30
2018-10-12T22:45:56.108Z,15.30
2018-10-12T22:48:24.194Z,15.20
2018-10-12T22:50:52.267Z,15.20
2018-10-12T22:53:20.360Z,15.20
2018-10-12T22:55:48.426Z,15.10
2018-10-12T22:58:16.520Z,15.10
2018-10-12T23:00:44.635Z,15.10
2018-10-12T23:03:12.756Z,15.00
2018-10-12T23:05:40.837Z,15.00
2018-10-12T23:08:08.953Z,14.90
2018-10-12T23:10:37.076Z,15.00
2018-10-12T23:13:05.169Z,14.90
2018-10-12T23:15:33.269Z,14.90
2018-10-12T23:18:01.404Z,14.80
2018-10-12T23:20:29.497Z,14.80
2018-10-12T23:22:57.620Z,14.90
2018-10-12T23:25:25.708Z,14.90
2018-10-12T23:27:53.801Z,14.80
2018-10-12T23:30:21.985Z,14.80
2018-10-12T23:32:50.098Z,14.80
2018-10-12T23:35:18.220Z,14.80
2018-10-12T23:37:46.329Z,14.90
2018-10-12T23:40:14.413Z,14.90
2018-10-12T23:42:42.488Z,14.90
2018-10-12T23:45:10.575Z,14.90
2018-10-12T23:47:38.682Z,14.90
2018-10-12T23:50:06.795Z,14.80
2018-10-12T23:52:34.974Z,14.80
2018-10-12T23:55:03.023Z,14.80
2018-10-12T23:57:31.113Z,14.70
2018-10-12T23:59:59.279Z,14.70
